Time;durP1;ratioP1;P1;durP2;ratioP2;P2;SDS_P1;SDS_P2;PMS_P1;PMS_P2;Temp;Humidity;BMP_temperature;BMP_pressure;BME280_temperature;BME280_humidity;BME280_pressure;Samples;Min_cycle;Max_cycle;Signal;HPM_P1;HPM_P2
2021/01/04 00:00:00;;;;;;;25.57;13.10;;;0.10;99.90;;;;;;4939169;29;20035;-83
2021/01/04 00:02:53;;;;;;;24.10;11.97;;;0.20;99.90;;;;;;4934221;29;20092;-86
2021/01/04 00:05:34;;;;;;;23.17;11.43;;;0.20;99.90;;;;;;4930271;29;20044;-83
2021/01/04 00:08:23;;;;;;;24.80;11.90;;;0.10;99.90;;;;;;4929340;29;20036;-85
2021/01/04 00:11:16;;;;;;;22.30;10.77;;;0.10;99.90;;;;;;4932755;29;20415;-83
2021/01/04 00:14:18;;;;;;;21.40;11.00;;;0.10;99.90;;;;;;4932845;29;20534;-85
2021/01/04 00:17:07;;;;;;;21.60;10.00;;;0.10;99.90;;;;;;4937499;29;20075;-83
2021/01/04 00:19:42;;;;;;;21.95;11.32;;;0.10;99.90;;;;;;4926721;28;20126;-83
2021/01/04 00:22:40;;;;;;;22.90;11.90;;;0.20;99.90;;;;;;4928623;29;20056;-85
2021/01/04 00:25:12;;;;;;;21.27;10.97;;;0.10;99.90;;;;;;4920259;28;20056;-83
2021/01/04 00:27:57;;;;;;;24.93;11.47;;;0.10;99.90;;;;;;4954358;28;20016;-82
2021/01/04 00:30:33;;;;;;;20.93;11.00;;;0.10;99.90;;;;;;4939183;28;20047;-83
2021/01/04 00:33:06;;;;;;;20.27;11.07;;;0.10;99.90;;;;;;4976354;28;20038;-81
2021/01/04 00:35:32;;;;;;;21.77;11.57;;;0.10;99.90;;;;;;4970531;28;20027;-83
2021/01/04 00:38:15;;;;;;;22.70;11.87;;;0.10;99.90;;;;;;4971279;28;20058;-83
2021/01/04 00:41:25;;;;;;;21.40;11.37;;;0.10;99.90;;;;;;4975360;28;20035;-84
2021/01/04 00:43:54;;;;;;;19.10;10.40;;;0.10;99.90;;;;;;4935988;29;20046;-84
2021/01/04 00:46:42;;;;;;;21.10;11.20;;;0.10;99.90;;;;;;4941473;28;20587;-83
2021/01/04 00:49:30;;;;;;;24.80;11.17;;;0.10;99.90;;;;;;4940749;29;20089;-83
2021/01/04 00:52:32;;;;;;;23.13;11.67;;;0.10;99.90;;;;;;4950227;28;20031;-82
2021/01/04 00:55:26;;;;;;;19.90;10.27;;;0.10;99.90;;;;;;4941055;29;20030;-84
2021/01/04 00:58:11;;;;;;;19.27;9.47;;;0.20;99.90;;;;;;4909856;29;20056;-84
2021/01/04 01:00:41;;;;;;;18.17;9.37;;;0.20;99.90;;;;;;4912988;29;20042;-84
2021/01/04 01:03:19;;;;;;;21.77;10.80;;;0.30;99.90;;;;;;4896379;29;20083;-84
2021/01/04 01:05:58;;;;;;;18.65;9.52;;;0.20;99.90;;;;;;4914784;29;20072;-83
2021/01/04 01:08:35;;;;;;;19.90;9.53;;;0.20;99.90;;;;;;4914179;29;20532;-85
2021/01/04 01:11:11;;;;;;;20.87;10.13;;;0.20;99.90;;;;;;4917384;29;20165;-83
2021/01/04 01:13:53;;;;;;;20.30;9.70;;;0.20;99.90;;;;;;4901067;29;20035;-84
2021/01/04 01:16:30;;;;;;;22.03;10.10;;;0.20;99.90;;;;;;4916878;29;20040;-84
2021/01/04 01:19:04;;;;;;;20.13;10.93;;;0.20;99.90;;;;;;4912829;29;20087;-84
2021/01/04 01:21:30;;;;;;;21.90;10.33;;;0.20;99.90;;;;;;4933000;29;20047;-82
2021/01/04 01:23:55;;;;;;;24.40;11.43;;;0.20;99.90;;;;;;4934555;29;20177;-83
2021/01/04 01:26:50;;;;;;;20.47;10.63;;;0.20;99.90;;;;;;4929960;29;20098;-84
2021/01/04 01:29:46;;;;;;;18.47;10.67;;;0.20;99.90;;;;;;4926197;29;20142;-83
2021/01/04 01:32:38;;;;;;;20.70;10.93;;;0.20;99.90;;;;;;4925509;29;20040;-84
2021/01/04 01:35:37;;;;;;;19.83;10.07;;;0.20;99.90;;;;;;4947440;28;20035;-84
2021/01/04 01:38:21;;;;;;;22.98;10.85;;;0.20;99.90;;;;;;4967563;28;20035;-83
2021/01/04 01:41:12;;;;;;;20.90;11.07;;;0.30;99.90;;;;;;4968044;28;20034;-85
2021/01/04 01:44:09;;;;;;;21.80;10.83;;;0.30;99.90;;;;;;4962226;28;20041;-86
2021/01/04 01:46:51;;;;;;;22.07;10.87;;;0.30;99.90;;;;;;4970309;28;20438;-84
2021/01/04 01:49:56;;;;;;;21.03;10.83;;;0.20;99.90;;;;;;4969272;28;20391;-83
2021/01/04 01:52:27;;;;;;;23.30;10.60;;;0.30;99.90;;;;;;4970400;28;20114;-85
2021/01/04 01:55:25;;;;;;;21.67;10.40;;;0.30;99.90;;;;;;4971508;28;20170;-87
2021/01/04 01:58:09;;;;;;;22.03;10.20;;;0.30;99.90;;;;;;4931016;29;20043;-86
2021/01/04 02:00:50;;;;;;;17.33;9.97;;;0.20;99.90;;;;;;4936656;29;20035;-83
2021/01/04 02:03:35;;;;;;;22.87;11.40;;;0.20;99.90;;;;;;4950389;29;20044;-85
2021/01/04 02:06:13;;;;;;;21.93;11.03;;;0.20;99.90;;;;;;4938346;29;20031;-83
2021/01/04 02:08:43;;;;;;;21.80;11.30;;;0.20;99.90;;;;;;4947232;29;20126;-85
2021/01/04 02:11:32;;;;;;;23.10;12.00;;;0.20;99.90;;;;;;4948608;29;20050;-85
2021/01/04 02:14:11;;;;;;;20.67;11.63;;;0.30;99.90;;;;;;4931668;29;20046;-83
2021/01/04 02:16:46;;;;;;;19.80;9.93;;;0.20;99.90;;;;;;4931950;29;20087;-84
2021/01/04 02:19:44;;;;;;;21.77;11.33;;;0.30;99.90;;;;;;4934990;28;20133;-84
2021/01/04 02:23:03;;;;;;;22.17;11.67;;;0.40;99.90;;;;;;4916982;29;20516;-83
2021/01/04 02:25:35;;;;;;;21.40;11.10;;;0.40;99.90;;;;;;4906659;29;20085;-85
2021/01/04 02:28:10;;;;;;;21.37;11.57;;;0.30;99.90;;;;;;4908115;29;20625;-84
2021/01/04 02:30:36;;;;;;;21.93;11.83;;;0.30;99.90;;;;;;4895055;29;20041;-83
2021/01/04 02:33:03;;;;;;;20.67;11.17;;;0.30;99.90;;;;;;4892690;29;20431;-84
2021/01/04 02:35:31;;;;;;;22.10;11.43;;;0.30;99.90;;;;;;4863195;29;20041;-84
2021/01/04 02:37:56;;;;;;;21.13;11.70;;;0.30;99.90;;;;;;4875645;29;20049;-83
2021/01/04 02:40:22;;;;;;;22.00;11.90;;;0.30;99.90;;;;;;4876688;29;20136;-85
2021/01/04 02:42:49;;;;;;;26.63;12.80;;;0.30;99.90;;;;;;4889140;29;20037;-85
2021/01/04 02:45:22;;;;;;;23.03;11.23;;;0.30;99.90;;;;;;4875056;29;21530;-84
2021/01/04 02:47:50;;;;;;;23.67;12.00;;;0.30;99.90;;;;;;4874968;29;20044;-83
2021/01/04 02:50:38;;;;;;;22.37;11.63;;;0.30;99.90;;;;;;4860515;29;20465;-84
2021/01/04 02:53:36;;;;;;;24.20;12.23;;;0.30;99.90;;;;;;4873726;29;20033;-84
2021/01/04 02:56:30;;;;;;;24.93;12.47;;;0.30;99.90;;;;;;4870639;29;20033;-84
2021/01/04 02:58:59;;;;;;;23.73;12.30;;;0.30;99.90;;;;;;4939758;28;20400;-84
2021/01/04 03:02:02;;;;;;;24.10;12.20;;;0.30;99.90;;;;;;4972311;28;20115;-85
2021/01/04 03:04:28;;;;;;;21.90;10.30;;;0.30;99.90;;;;;;4979616;28;20058;-83
2021/01/04 03:07:00;;;;;;;24.37;12.47;;;0.30;99.90;;;;;;4975884;28;20109;-84
2021/01/04 03:09:28;;;;;;;23.30;12.17;;;0.30;99.90;;;;;;4970395;28;20053;-84
2021/01/04 03:11:54;;;;;;;22.73;12.00;;;0.30;99.90;;;;;;4973321;28;20117;-84
2021/01/04 03:14:44;;;;;;;20.87;11.67;;;0.20;99.90;;;;;;4972638;28;20431;-83
2021/01/04 03:17:34;;;;;;;24.03;12.07;;;0.30;99.90;;;;;;4970334;28;20043;-85
2021/01/04 03:20:01;;;;;;;;;;;0.30;99.90;;;;;;4971993;28;20379;-83
2021/01/04 03:22:27;;;;;;;22.63;11.53;;;0.30;99.90;;;;;;4973614;28;20265;-84
2021/01/04 03:24:53;;;;;;;23.63;12.20;;;0.30;99.90;;;;;;4973777;28;20023;-82
2021/01/04 03:27:30;;;;;;;21.90;12.10;;;0.20;99.90;;;;;;4972720;28;20058;-82
2021/01/04 03:29:56;;;;;;;25.93;13.20;;;0.30;99.90;;;;;;4972390;28;20069;-84
2021/01/04 03:32:21;;;;;;;24.00;12.50;;;0.20;99.90;;;;;;4988610;28;20011;-84
2021/01/04 03:34:49;;;;;;;23.10;12.23;;;0.20;99.90;;;;;;4975455;28;20070;-85
2021/01/04 03:37:15;;;;;;;23.80;11.83;;;0.20;99.90;;;;;;4972715;28;20027;-84
2021/01/04 03:39:41;;;;;;;21.07;11.00;;;0.20;99.90;;;;;;4973320;28;20042;-83
2021/01/04 03:42:07;;;;;;;22.70;11.30;;;0.20;99.90;;;;;;4971365;28;20039;-83
2021/01/04 03:44:33;;;;;;;21.57;11.37;;;0.20;99.90;;;;;;4972414;28;20071;-85
2021/01/04 03:46:58;;;;;;;25.37;12.93;;;0.20;99.90;;;;;;4972517;28;20093;-86
2021/01/04 03:49:24;;;;;;;23.67;11.50;;;0.10;99.90;;;;;;4974181;28;20092;-84
2021/01/04 03:51:56;;;;;;;25.63;13.13;;;0.10;99.90;;;;;;4971593;28;20059;-83
2021/01/04 03:54:22;;;;;;;25.13;13.03;;;0.10;99.90;;;;;;4969869;28;20114;-83
2021/01/04 03:56:48;;;;;;;24.67;13.63;;;0.10;99.90;;;;;;4973738;28;20018;-83
2021/01/04 03:59:14;;;;;;;23.93;13.23;;;0.10;99.90;;;;;;4956298;28;20538;-83
2021/01/04 04:01:46;;;;;;;27.73;13.40;;;0.10;99.90;;;;;;4973135;28;20046;-84
2021/01/04 04:04:13;;;;;;;23.90;12.30;;;0.10;99.90;;;;;;4969270;28;20026;-83
2021/01/04 04:06:39;;;;;;;25.30;13.20;;;0.10;99.90;;;;;;4973162;28;20125;-82
2021/01/04 04:09:04;;;;;;;24.97;13.70;;;0.00;99.90;;;;;;4967463;28;20107;-83
2021/01/04 04:11:30;;;;;;;26.50;12.97;;;0.00;99.90;;;;;;4969435;28;20027;-84
2021/01/04 04:13:55;;;;;;;20.67;11.67;;;0.00;99.90;;;;;;4972918;28;20142;-83
2021/01/04 04:16:21;;;;;;;24.50;13.63;;;0.00;99.90;;;;;;4971171;28;20075;-84
2021/01/04 04:18:47;;;;;;;27.23;14.17;;;0.00;99.90;;;;;;4969484;28;20031;-85
2021/01/04 04:21:14;;;;;;;23.00;12.57;;;0.00;99.90;;;;;;4972361;28;20054;-83
2021/01/04 04:23:40;;;;;;;25.27;13.10;;;0.00;99.90;;;;;;4971565;28;20039;-82
2021/01/04 04:26:06;;;;;;;25.97;13.60;;;0.10;99.90;;;;;;4971955;28;20038;-83
2021/01/04 04:28:32;;;;;;;25.07;14.13;;;0.10;99.90;;;;;;4971776;28;20395;-82
2021/01/04 04:30:59;;;;;;;28.07;14.37;;;0.10;99.90;;;;;;4971473;28;20030;-83
2021/01/04 04:33:24;;;;;;;23.73;12.00;;;0.10;99.90;;;;;;4975269;28;20027;-84
2021/01/04 04:35:51;;;;;;;28.57;14.10;;;0.10;99.90;;;;;;4994601;28;20037;-84
2021/01/04 04:38:16;;;;;;;25.50;13.83;;;0.10;99.90;;;;;;4993732;28;20094;-82
2021/01/04 04:40:42;;;;;;;23.63;13.80;;;0.10;99.90;;;;;;4987080;28;20050;-83
2021/01/04 04:43:15;;;;;;;26.67;13.90;;;0.10;99.90;;;;;;4970519;28;20030;-82
2021/01/04 04:45:42;;;;;;;29.00;14.57;;;0.10;99.90;;;;;;4971821;28;20027;-83
2021/01/04 04:48:40;;;;;;;25.17;12.73;;;0.00;99.90;;;;;;4969679;28;20044;-83
2021/01/04 04:51:33;;;;;;;25.70;13.20;;;0.10;99.90;;;;;;4945003;28;20047;-82
2021/01/04 04:54:08;;;;;;;25.30;13.13;;;0.10;99.90;;;;;;4963331;28;20129;-84
2021/01/04 04:57:03;;;;;;;23.53;12.03;;;0.10;99.90;;;;;;4954329;28;20018;-83
2021/01/04 04:59:48;;;;;;;27.60;14.00;;;0.00;99.90;;;;;;4969924;28;20079;-83
2021/01/04 05:02:46;;;;;;;28.57;14.03;;;0.10;99.90;;;;;;4949782;28;20175;-83
2021/01/04 05:05:20;;;;;;;25.30;14.03;;;0.10;99.90;;;;;;4945567;29;20428;-84
2021/01/04 05:08:13;;;;;;;25.73;13.77;;;0.00;99.90;;;;;;4950025;28;20407;-84
2021/01/04 05:10:44;;;;;;;26.63;14.60;;;0.00;99.90;;;;;;4951839;28;20043;-87
2021/01/04 05:13:26;;;;;;;24.87;12.50;;;0.00;99.90;;;;;;4935431;29;20379;-83
2021/01/04 05:16:00;;;;;;;25.83;13.47;;;0.00;99.90;;;;;;4934221;29;20043;-83
2021/01/04 05:18:43;;;;;;;26.27;14.00;;;0.00;99.90;;;;;;4951272;29;20019;-85
2021/01/04 05:21:41;;;;;;;26.60;13.83;;;0.10;99.90;;;;;;4932521;29;20840;-83
2021/01/04 05:24:34;;;;;;;23.77;12.83;;;0.00;99.90;;;;;;4878473;29;20037;-84
2021/01/04 05:27:11;;;;;;;27.03;13.80;;;0.00;99.90;;;;;;4859555;29;20061;-86
2021/01/04 05:29:49;;;;;;;26.73;14.23;;;0.00;99.90;;;;;;4838062;29;20034;-85
2021/01/04 05:32:24;;;;;;;25.67;13.37;;;0.00;99.90;;;;;;4834536;29;20046;-84
2021/01/04 05:34:59;;;;;;;24.10;10.97;;;0.00;99.90;;;;;;4841884;29;20106;-83
2021/01/04 05:37:42;;;;;;;27.50;13.77;;;0.00;99.90;;;;;;4837366;29;20042;-81
2021/01/04 05:40:46;;;;;;;22.83;12.13;;;0.00;99.90;;;;;;4844095;29;20038;-82
2021/01/04 05:43:42;;;;;;;25.37;13.53;;;0.00;99.90;;;;;;4898738;29;20033;-83
2021/01/04 05:46:18;;;;;;;25.73;13.07;;;0.00;99.90;;;;;;4917345;29;20051;-83
2021/01/04 05:49:05;;;;;;;25.40;12.67;;;0.00;99.90;;;;;;4911804;29;20079;-83
2021/01/04 05:51:35;;;;;;;26.27;13.93;;;0.00;99.90;;;;;;4908594;29;20060;-83
2021/01/04 05:54:01;;;;;;;28.10;14.13;;;0.00;99.90;;;;;;4907007;29;20099;-85
2021/01/04 05:56:29;;;;;;;24.93;13.53;;;0.00;99.90;;;;;;4905551;29;20031;-84
2021/01/04 05:59:16;;;;;;;26.47;11.60;;;0.00;99.90;;;;;;4890404;29;20024;-83
2021/01/04 06:01:44;;;;;;;26.43;14.53;;;-0.10;99.90;;;;;;4957297;28;20504;-84
2021/01/04 06:04:23;;;;;;;27.00;14.17;;;-0.10;99.90;;;;;;4967342;28;20054;-83
2021/01/04 06:06:57;;;;;;;27.38;14.25;;;-0.10;99.90;;;;;;4971372;28;20031;-83
2021/01/04 06:09:24;;;;;;;29.93;13.27;;;-0.10;99.90;;;;;;4971798;28;20034;-84
2021/01/04 06:12:05;;;;;;;29.77;14.43;;;-0.20;99.90;;;;;;4970384;28;20086;-84
2021/01/04 06:14:33;;;;;;;29.47;13.40;;;-0.10;99.90;;;;;;4972670;28;20030;-84
2021/01/04 06:17:05;;;;;;;29.47;15.30;;;-0.10;99.90;;;;;;4971709;28;20043;-85
2021/01/04 06:19:35;;;;;;;31.47;14.73;;;-0.10;99.90;;;;;;4974408;28;20126;-84
2021/01/04 06:22:12;;;;;;;29.27;15.25;;;-0.10;99.90;;;;;;4987802;28;20049;-84
2021/01/04 06:24:41;;;;;;;31.10;14.93;;;-0.10;99.90;;;;;;4981138;28;20023;-84
2021/01/04 06:27:06;;;;;;;28.98;14.40;;;-0.10;99.90;;;;;;4982089;28;20042;-85
2021/01/04 06:29:36;;;;;;;31.13;16.00;;;-0.10;99.90;;;;;;4977694;28;20027;-82
2021/01/04 06:32:04;;;;;;;32.23;15.10;;;-0.10;99.90;;;;;;4970270;28;20038;-84
2021/01/04 06:34:39;;;;;;;33.70;16.47;;;0.00;99.90;;;;;;4985243;28;20373;-84
2021/01/04 06:37:20;;;;;;;36.77;16.50;;;0.00;99.90;;;;;;4971565;28;20069;-84
2021/01/04 06:39:56;;;;;;;32.37;13.83;;;0.00;99.90;;;;;;4966429;28;20038;-83
2021/01/04 06:42:24;;;;;;;35.17;16.40;;;0.00;99.90;;;;;;4969090;28;20098;-84
2021/01/04 06:45:14;;;;;;;33.33;15.37;;;0.00;99.90;;;;;;4973420;28;20035;-82
2021/01/04 06:48:02;;;;;;;37.03;17.13;;;-0.10;99.90;;;;;;4969515;28;20027;-83
2021/01/04 06:50:42;;;;;;;36.43;16.90;;;-0.10;99.90;;;;;;4973909;28;20030;-83
2021/01/04 06:53:37;;;;;;;32.23;13.57;;;-0.10;99.90;;;;;;4995957;28;20023;-83
2021/01/04 06:56:19;;;;;;;36.13;17.33;;;-0.10;99.90;;;;;;4993968;28;20022;-84
2021/01/04 06:59:12;;;;;;;38.33;17.17;;;-0.20;99.90;;;;;;4991525;28;20066;-85
2021/01/04 07:02:12;;;;;;;38.70;17.33;;;-0.20;99.90;;;;;;4987539;28;20043;-84
2021/01/04 07:04:56;;;;;;;;;;;-0.10;99.90;;;;;;4969926;28;20054;-83
2021/01/04 07:08:22;;;;;;;23.13;9.77;;;-0.20;99.90;;;;;;4989636;28;19922;-82
2021/01/04 07:11:20;;;;;;;36.57;15.43;;;-0.30;99.90;;;;;;4968326;28;20066;-83
2021/01/04 07:14:02;;;;;;;35.53;14.20;;;-0.30;99.90;;;;;;4991179;28;20453;-81
2021/01/04 07:16:54;;;;;;;30.70;12.73;;;-0.30;99.90;;;;;;4985729;28;20041;-82
2021/01/04 07:19:51;;;;;;;35.27;13.57;;;-0.20;99.90;;;;;;4976126;28;20047;-82
2021/01/04 07:22:25;;;;;;;38.77;18.13;;;-0.20;99.90;;;;;;4990124;28;20523;-86
2021/01/04 07:25:20;;;;;;;39.10;16.80;;;-0.20;99.90;;;;;;4968376;28;20031;-87
2021/01/04 07:27:54;;;;;;;42.93;18.07;;;-0.10;99.90;;;;;;4977396;28;20524;-87
2021/01/04 07:30:31;;;;;;;40.60;18.50;;;-0.10;99.90;;;;;;4974525;28;20044;-87
2021/01/04 07:33:32;;;;;;;39.37;18.57;;;-0.10;99.90;;;;;;4965364;28;20125;-83
2021/01/04 07:36:20;;;;;;;37.27;17.77;;;-0.10;99.90;;;;;;4979268;28;20129;-85
2021/01/04 07:39:23;;;;;;;42.60;18.77;;;-0.10;99.90;;;;;;4989184;28;20113;-87
2021/01/04 07:41:58;;;;;;;41.67;18.43;;;0.00;99.90;;;;;;4971406;28;20377;-85
2021/01/04 07:44:45;;;;;;;45.20;20.00;;;0.00;99.90;;;;;;4974575;28;20027;-86
2021/01/04 07:47:33;;;;;;;26.10;11.27;;;-0.10;99.90;;;;;;4975940;28;20031;-85
2021/01/04 07:50:21;;;;;;;33.37;13.90;;;-0.20;99.90;;;;;;4974967;28;20033;-85
2021/01/04 07:53:29;;;;;;;37.17;16.70;;;-0.30;99.90;;;;;;4966500;28;20030;-85
2021/01/04 07:56:25;;;;;;;39.10;17.63;;;-0.30;99.90;;;;;;4985211;28;20760;-85
2021/01/04 07:59:16;;;;;;;36.00;13.73;;;-0.20;99.90;;;;;;4972245;28;20157;-83
2021/01/04 08:02:26;;;;;;;41.87;18.10;;;-0.20;99.90;;;;;;4967469;28;20572;-83
2021/01/04 08:05:19;;;;;;;44.27;16.93;;;-0.20;99.90;;;;;;4968863;28;20038;-80
2021/01/04 08:07:47;;;;;;;40.80;17.70;;;-0.20;99.90;;;;;;4989502;28;20069;-85
2021/01/04 08:10:20;;;;;;;42.07;15.77;;;-0.20;99.90;;;;;;4972963;28;20470;-82
2021/01/04 08:13:26;;;;;;;40.80;17.93;;;-0.20;99.90;;;;;;4972857;28;20054;-82
2021/01/04 08:16:07;;;;;;;33.40;13.33;;;-0.20;99.90;;;;;;4964767;28;20035;-79
2021/01/04 08:18:34;;;;;;;42.43;18.73;;;-0.20;99.90;;;;;;4969360;28;20014;-84
2021/01/04 08:21:13;;;;;;;47.37;19.37;;;-0.10;99.90;;;;;;4974474;28;20065;-83
2021/01/04 08:23:51;;;;;;;;;;;-0.10;99.90;;;;;;4971795;28;20038;-82
2021/01/04 08:27:01;;;;;;;44.27;18.47;;;-0.10;99.90;;;;;;4970806;28;19917;-82
2021/01/04 08:29:50;;;;;;;41.27;17.83;;;-0.10;99.90;;;;;;4971872;28;20043;-81
2021/01/04 08:32:33;;;;;;;40.28;17.88;;;-0.10;99.90;;;;;;4972507;28;20035;-83
2021/01/04 08:35:29;;;;;;;42.20;17.93;;;-0.10;99.90;;;;;;4970158;28;20486;-82
2021/01/04 08:37:58;;;;;;;33.70;14.50;;;-0.10;99.90;;;;;;4970396;28;20121;-82
2021/01/04 08:40:34;;;;;;;42.83;18.63;;;-0.20;99.90;;;;;;4973566;28;20105;-85
2021/01/04 08:43:10;;;;;;;41.40;18.03;;;-0.20;99.90;;;;;;4969763;28;20409;-87
2021/01/04 08:45:45;;;;;;;36.90;15.30;;;-0.20;99.90;;;;;;4981346;28;20486;-86
2021/01/04 08:48:20;;;;;;;34.67;13.47;;;-0.10;99.90;;;;;;4955460;28;20491;-82
2021/01/04 08:51:18;;;;;;;40.37;15.03;;;-0.20;99.90;;;;;;4976517;28;20046;-84
2021/01/04 08:54:10;;;;;;;44.22;19.55;;;-0.20;99.90;;;;;;4946477;28;20410;-82
2021/01/04 08:56:40;;;;;;;43.87;18.17;;;-0.20;99.90;;;;;;4952299;28;20035;-81
2021/01/04 08:59:10;;;;;;;36.77;16.00;;;-0.10;99.90;;;;;;4970488;28;20043;-81
2021/01/04 09:01:35;;;;;;;;;;;-0.10;99.90;;;;;;4971031;28;20109;-80
2021/01/04 09:04:08;;;;;;;45.03;17.47;;;-0.20;99.90;;;;;;4975705;28;19914;-82
2021/01/04 09:06:38;;;;;;;22.13;9.50;;;-0.10;99.90;;;;;;4961455;28;20062;-83
2021/01/04 09:09:08;;;;;;;42.40;15.20;;;-0.20;99.90;;;;;;4970377;28;20019;-79
2021/01/04 09:11:57;;;;;;;43.43;19.27;;;-0.20;99.90;;;;;;4985490;28;20031;-83
2021/01/04 09:14:45;;;;;;;39.88;15.45;;;-0.20;99.90;;;;;;4959306;28;20031;-81
2021/01/04 09:17:33;;;;;;;38.53;15.93;;;-0.10;99.90;;;;;;4973023;28;20039;-86
2021/01/04 09:20:07;;;;;;;55.07;20.20;;;-0.20;99.90;;;;;;4932794;29;20043;-84
2021/01/04 09:22:33;;;;;;;47.87;20.30;;;-0.20;99.90;;;;;;4919704;29;20098;-87
2021/01/04 09:24:58;;;;;;;44.83;19.63;;;-0.10;99.90;;;;;;4912855;29;20150;-83
2021/01/04 09:27:36;;;;;;;42.93;17.87;;;-0.10;99.90;;;;;;4925547;29;20054;-79
2021/01/04 09:30:09;;;;;;;47.57;20.30;;;-0.10;99.90;;;;;;4926800;29;20178;-80
2021/01/04 09:32:42;;;;;;;34.73;14.80;;;-0.10;99.90;;;;;;4910779;29;20554;-78
2021/01/04 09:35:15;;;;;;;44.30;18.03;;;-0.10;99.90;;;;;;4909810;29;20117;-79
2021/01/04 09:37:40;;;;;;;42.87;18.50;;;-0.10;99.90;;;;;;4911311;29;20048;-78
2021/01/04 09:40:10;;;;;;;41.43;17.60;;;-0.20;99.90;;;;;;4909827;29;20042;-79
2021/01/04 09:42:36;;;;;;;44.25;18.27;;;-0.20;99.90;;;;;;4909010;29;20047;-78
2021/01/04 09:45:11;;;;;;;46.73;19.17;;;-0.30;99.90;;;;;;4903495;29;20063;-80
2021/01/04 09:47:53;;;;;;;45.03;17.47;;;-0.30;99.90;;;;;;4909945;29;20087;-84
2021/01/04 09:50:29;;;;;;;49.37;19.10;;;-0.20;99.90;;;;;;4910115;29;20048;-82
2021/01/04 09:53:34;;;;;;;43.13;18.33;;;-0.20;99.90;;;;;;4909724;29;20535;-80
2021/01/04 09:56:04;;;;;;;45.47;19.47;;;-0.10;99.90;;;;;;4860975;29;20029;-81
2021/01/04 09:58:30;;;;;;;39.47;16.77;;;-0.10;99.90;;;;;;4930220;29;20044;-79
2021/01/04 10:01:12;;;;;;;42.10;19.33;;;-0.10;99.90;;;;;;4930027;29;20036;-80
2021/01/04 10:03:39;;;;;;;44.53;19.43;;;-0.10;99.90;;;;;;4917593;29;20484;-78
2021/01/04 10:06:09;;;;;;;47.03;20.40;;;0.00;99.90;;;;;;4929541;29;20032;-80
2021/01/04 10:08:37;;;;;;;46.53;19.33;;;0.00;99.90;;;;;;4930978;29;20035;-81
2021/01/04 10:11:08;;;;;;;40.53;15.83;;;0.00;99.90;;;;;;4928496;29;20059;-83
2021/01/04 10:13:39;;;;;;;41.17;17.73;;;-0.10;99.90;;;;;;4926927;29;20117;-82
2021/01/04 10:16:08;;;;;;;37.73;14.63;;;-0.20;99.90;;;;;;4930066;29;20023;-79
2021/01/04 10:18:42;;;;;;;44.40;16.63;;;-0.40;99.90;;;;;;4929205;29;20075;-79
2021/01/04 10:21:16;;;;;;;39.70;16.23;;;-0.40;99.90;;;;;;4932582;29;20047;-78
2021/01/04 10:23:49;;;;;;;47.87;19.60;;;-0.30;99.90;;;;;;4932822;29;20031;-80
2021/01/04 10:26:15;;;;;;;38.13;14.77;;;-0.20;99.90;;;;;;4932278;29;20035;-79
2021/01/04 10:28:41;;;;;;;20.27;8.87;;;-0.30;99.90;;;;;;4930965;29;20483;-78
2021/01/04 10:31:24;;;;;;;41.33;17.23;;;-0.40;99.90;;;;;;4969552;28;20457;-77
2021/01/04 10:34:01;;;;;;;48.50;20.23;;;-0.40;99.90;;;;;;4967899;28;20035;-80
2021/01/04 10:36:27;;;;;;;48.90;21.20;;;-0.30;99.90;;;;;;4974024;28;20505;-80
2021/01/04 10:39:13;;;;;;;43.37;18.47;;;-0.40;99.90;;;;;;4956638;28;20038;-80
2021/01/04 10:41:39;;;;;;;47.57;19.80;;;-0.30;99.90;;;;;;4987138;28;20046;-78
2021/01/04 10:44:09;;;;;;;44.07;19.13;;;-0.30;99.90;;;;;;4973340;28;20109;-80
2021/01/04 10:46:53;;;;;;;46.70;19.90;;;-0.40;99.90;;;;;;4972934;28;20037;-82
2021/01/04 10:49:34;;;;;;;47.87;20.33;;;-0.40;99.90;;;;;;4970133;28;20023;-86
2021/01/04 10:52:01;;;;;;;49.63;20.50;;;-0.50;99.90;;;;;;4985453;28;20031;-83
2021/01/04 10:54:43;;;;;;;49.93;22.07;;;-0.60;99.90;;;;;;4995104;28;20053;-85
2021/01/04 10:57:12;;;;;;;46.67;17.67;;;-0.50;99.90;;;;;;4997035;28;20034;-84
2021/01/04 10:59:53;;;;;;;32.60;12.47;;;-0.50;99.90;;;;;;4991627;28;20041;-86
2021/01/04 11:02:18;;;;;;;46.20;19.63;;;-0.50;99.90;;;;;;4981995;28;20113;-82
2021/01/04 11:04:53;;;;;;;48.90;19.67;;;-0.50;99.90;;;;;;4980322;28;20026;-85
2021/01/04 11:07:31;;;;;;;26.67;10.90;;;-0.50;99.90;;;;;;4972043;28;20039;-85
2021/01/04 11:10:26;;;;;;;43.57;16.73;;;-0.70;99.90;;;;;;4987522;28;20053;-87
2021/01/04 11:12:55;;;;;;;31.87;11.03;;;-0.70;99.90;;;;;;4987105;28;20066;-83
2021/01/04 11:15:28;;;;;;;40.50;16.33;;;-0.70;99.90;;;;;;4984528;28;20026;-85
2021/01/04 11:18:06;;;;;;;35.40;14.57;;;-0.70;99.90;;;;;;4958028;28;20581;-85
2021/01/04 11:20:33;;;;;;;41.93;17.33;;;-0.80;99.90;;;;;;4963638;28;20055;-82
2021/01/04 11:23:01;;;;;;;43.77;15.33;;;-0.80;99.90;;;;;;4984485;28;20042;-82
2021/01/04 11:25:26;;;;;;;36.20;13.63;;;-0.80;99.90;;;;;;4998493;28;20117;-84
2021/01/04 11:27:53;;;;;;;52.80;21.43;;;-0.80;99.90;;;;;;4995148;28;20081;-82
2021/01/04 11:30:21;;;;;;;33.30;11.90;;;-0.80;99.90;;;;;;4985689;28;20502;-83
2021/01/04 11:32:47;;;;;;;27.00;10.93;;;-0.80;99.90;;;;;;4978667;28;20101;-88
2021/01/04 11:35:13;;;;;;;58.40;23.57;;;-0.90;99.90;;;;;;4982725;28;20039;-91
2021/01/04 11:37:39;;;;;;;45.73;18.50;;;-0.80;99.90;;;;;;4962455;28;20035;-84
2021/01/04 11:40:05;;;;;;;55.10;22.70;;;-0.80;99.90;;;;;;4978697;28;20041;-91
2021/01/04 11:42:31;;;;;;;48.47;19.40;;;-0.80;99.90;;;;;;4976817;28;20134;-88
2021/01/04 11:44:58;;;;;;;53.13;23.07;;;-0.70;99.90;;;;;;4981310;28;20116;-85
2021/01/04 11:47:24;;;;;;;55.53;20.57;;;-0.70;99.90;;;;;;4972398;28;20423;-84
2021/01/04 11:49:49;;;;;;;55.20;23.07;;;-0.70;99.90;;;;;;4971823;28;20099;-85
2021/01/04 11:52:15;;;;;;;48.27;18.30;;;-0.60;99.90;;;;;;4976160;28;20038;-85
2021/01/04 11:54:44;;;;;;;49.37;19.87;;;-0.70;99.90;;;;;;4974926;28;20026;-85
2021/01/04 11:57:10;;;;;;;57.72;23.90;;;-0.70;99.90;;;;;;4972081;28;20439;-88
2021/01/04 11:59:36;;;;;;;31.10;11.20;;;-0.70;99.90;;;;;;4981222;28;20054;-84
2021/01/04 12:02:03;;;;;;;37.30;15.67;;;-0.80;99.90;;;;;;4967232;28;20039;-87
2021/01/04 12:04:29;;;;;;;51.80;21.00;;;-0.90;99.90;;;;;;4990339;28;20046;-85
2021/01/04 12:06:54;;;;;;;47.53;19.77;;;-0.80;99.90;;;;;;4974974;28;20031;-86
2021/01/04 12:09:20;;;;;;;34.03;11.87;;;-0.90;99.90;;;;;;4977201;28;20023;-86
2021/01/04 12:11:48;;;;;;;26.23;11.73;;;-0.90;99.90;;;;;;4977349;28;20030;-86
2021/01/04 12:14:24;;;;;;;35.22;14.07;;;-0.90;99.90;;;;;;4975507;28;20430;-85
2021/01/04 12:16:52;;;;;;;54.60;23.20;;;-0.90;99.90;;;;;;4975456;28;20027;-81
2021/01/04 12:19:18;;;;;;;57.80;25.27;;;-0.80;99.90;;;;;;4987941;28;20051;-88
2021/01/04 12:21:43;;;;;;;51.70;21.43;;;-0.70;99.90;;;;;;4991347;28;20034;-84
2021/01/04 12:24:09;;;;;;;61.17;25.63;;;-0.70;99.90;;;;;;4976394;28;20035;-85
2021/01/04 12:27:21;;;;;;;60.73;26.33;;;-0.70;99.90;;;;;;4977262;28;20038;-84
2021/01/04 12:30:13;;;;;;;55.93;25.23;;;-0.70;99.90;;;;;;4970039;28;20034;-84
2021/01/04 12:33:01;;;;;;;61.50;27.40;;;-0.90;99.90;;;;;;4955117;28;20039;-83
2021/01/04 12:35:36;;;;;;;60.07;24.63;;;-0.80;99.90;;;;;;4941727;28;20047;-83
2021/01/04 12:38:09;;;;;;;56.80;25.20;;;-0.60;99.90;;;;;;4953370;28;20070;-84
2021/01/04 12:40:36;;;;;;;55.60;24.07;;;-0.60;99.90;;;;;;4952304;28;20054;-81
2021/01/04 12:43:03;;;;;;;58.90;27.43;;;-0.60;99.90;;;;;;4954438;28;20042;-82
2021/01/04 12:45:34;;;;;;;55.33;24.47;;;-0.60;99.90;;;;;;4948617;28;20054;-83
2021/01/04 12:48:01;;;;;;;51.23;24.80;;;-0.60;99.90;;;;;;4967565;28;20031;-81
2021/01/04 12:57:04;;;;;;;56.53;25.20;;;-0.60;99.90;;;;;;1428869;23;20568;-83
2021/01/04 13:22:26;;;;;;;56.47;25.50;;;-0.70;99.90;;;;;;4938369;29;20419;-84
2021/01/04 13:25:01;;;;;;;52.95;22.33;;;-0.70;99.90;;;;;;4916976;29;20485;-83
2021/01/04 13:27:36;;;;;;;43.37;15.33;;;-0.90;99.90;;;;;;4921180;29;20352;-80
2021/01/04 13:30:55;;;;;;;37.93;14.00;;;-0.90;99.90;;;;;;4928688;29;20036;-84
2021/01/04 13:33:23;;;;;;;39.75;14.52;;;-1.00;99.90;;;;;;4840511;29;20141;-87
2021/01/04 13:35:51;;;;;;;51.77;19.57;;;-1.10;99.90;;;;;;4842491;29;20498;-88
2021/01/04 13:38:41;;;;;;;51.10;19.33;;;-1.00;99.90;;;;;;4828009;29;20061;-85
2021/01/04 13:41:14;;;;;;;31.10;11.40;;;-1.10;99.90;;;;;;4842976;29;20049;-85
2021/01/04 13:43:42;;;;;;;35.03;12.07;;;-1.00;99.90;;;;;;4843437;29;20037;-84
2021/01/04 13:46:08;;;;;;;31.77;13.40;;;-1.10;99.90;;;;;;4847956;29;20055;-87
2021/01/04 13:48:58;;;;;;;62.97;26.03;;;-1.20;99.90;;;;;;4846497;29;20019;-86
2021/01/04 13:51:52;;;;;;;61.03;24.73;;;-1.10;99.90;;;;;;4849698;29;20030;-88
2021/01/04 13:54:19;;;;;;;58.13;25.63;;;-1.10;99.90;;;;;;4787060;29;20054;-88